sensor_id;sensor_type;location;lat;lon;timestamp;P1;durP1;ratioP1;P2;durP2;ratioP2
2021;SDS011;1015;49.756;6.994;2022-10-26T00:01:43;1.67;;;1.57;;
2021;SDS011;1015;49.756;6.994;2022-10-26T00:04:12;5.77;;;1.80;;
2021;SDS011;1015;49.756;6.994;2022-10-26T00:06:39;1.70;;;1.60;;
2021;SDS011;1015;49.756;6.994;2022-10-26T00:09:06;2.53;;;1.90;;
2021;SDS011;1015;49.756;6.994;2022-10-26T00:11:33;3.53;;;1.60;;
2021;SDS011;1015;49.756;6.994;2022-10-26T00:14:00;3.23;;;1.70;;
2021;SDS011;1015;49.756;6.994;2022-10-26T00:16:28;2.10;;;1.87;;
2021;SDS011;1015;49.756;6.994;2022-10-26T00:18:55;2.03;;;1.30;;
2021;SDS011;1015;49.756;6.994;2022-10-26T00:21:24;3.00;;;1.23;;
2021;SDS011;1015;49.756;6.994;2022-10-26T00:23:51;1.90;;;1.80;;
2021;SDS011;1015;49.756;6.994;2022-10-26T00:26:18;2.10;;;1.20;;
2021;SDS011;1015;49.756;6.994;2022-10-26T00:28:45;2.53;;;1.47;;
2021;SDS011;1015;49.756;6.994;2022-10-26T00:31:13;1.43;;;1.20;;
2021;SDS011;1015;49.756;6.994;2022-10-26T00:33:41;2.90;;;1.50;;
2021;SDS011;1015;49.756;6.994;2022-10-26T00:36:09;2.00;;;1.20;;
2021;SDS011;1015;49.756;6.994;2022-10-26T00:38:39;3.27;;;1.37;;
2021;SDS011;1015;49.756;6.994;2022-10-26T00:41:12;1.40;;;1.30;;
2021;SDS011;1015;49.756;6.994;2022-10-26T00:43:40;1.97;;;1.23;;
2021;SDS011;1015;49.756;6.994;2022-10-26T00:46:09;2.70;;;1.27;;
2021;SDS011;1015;49.756;6.994;2022-10-26T00:48:42;2.20;;;1.70;;
2021;SDS011;1015;49.756;6.994;2022-10-26T00:51:15;2.50;;;1.30;;
2021;SDS011;1015;49.756;6.994;2022-10-26T00:53:47;2.50;;;1.57;;
2021;SDS011;1015;49.756;6.994;2022-10-26T00:56:15;3.47;;;1.83;;
2021;SDS011;1015;49.756;6.994;2022-10-26T00:58:42;1.53;;;1.20;;
2021;SDS011;1015;49.756;6.994;2022-10-26T01:01:10;1.60;;;1.33;;
2021;SDS011;1015;49.756;6.994;2022-10-26T01:03:37;3.57;;;1.53;;
2021;SDS011;1015;49.756;6.994;2022-10-26T01:06:05;2.13;;;1.10;;
2021;SDS011;1015;49.756;6.994;2022-10-26T01:08:33;2.33;;;1.60;;
2021;SDS011;1015;49.756;6.994;2022-10-26T01:11:02;2.90;;;1.43;;
2021;SDS011;1015;49.756;6.994;2022-10-26T01:13:30;3.80;;;1.40;;
2021;SDS011;1015;49.756;6.994;2022-10-26T01:16:02;2.17;;;1.30;;
2021;SDS011;1015;49.756;6.994;2022-10-26T01:18:42;1.60;;;1.33;;
2021;SDS011;1015;49.756;6.994;2022-10-26T01:21:37;2.37;;;1.40;;
2021;SDS011;1015;49.756;6.994;2022-10-26T01:24:29;3.60;;;1.40;;
2021;SDS011;1015;49.756;6.994;2022-10-26T01:27:25;1.63;;;1.03;;
2021;SDS011;1015;49.756;6.994;2022-10-26T01:30:16;1.63;;;1.40;;
2021;SDS011;1015;49.756;6.994;2022-10-26T01:32:46;3.57;;;1.00;;
2021;SDS011;1015;49.756;6.994;2022-10-26T01:35:24;5.23;;;1.40;;
2021;SDS011;1015;49.756;6.994;2022-10-26T01:37:56;1.10;;;1.00;;
2021;SDS011;1015;49.756;6.994;2022-10-26T01:40:30;1.20;;;1.10;;
2021;SDS011;1015;49.756;6.994;2022-10-26T01:43:03;1.10;;;1.00;;
2021;SDS011;1015;49.756;6.994;2022-10-26T01:45:34;2.37;;;1.20;;
2021;SDS011;1015;49.756;6.994;2022-10-26T01:48:05;2.20;;;1.07;;
2021;SDS011;1015;49.756;6.994;2022-10-26T01:50:35;2.60;;;1.23;;
2021;SDS011;1015;49.756;6.994;2022-10-26T01:53:03;2.17;;;1.10;;
2021;SDS011;1015;49.756;6.994;2022-10-26T01:55:38;2.50;;;1.10;;
2021;SDS011;1015;49.756;6.994;2022-10-26T01:58:14;2.60;;;1.07;;
2021;SDS011;1015;49.756;6.994;2022-10-26T02:01:07;1.60;;;1.13;;
2021;SDS011;1015;49.756;6.994;2022-10-26T02:03:45;2.53;;;1.10;;
2021;SDS011;1015;49.756;6.994;2022-10-26T02:06:24;1.80;;;1.10;;
2021;SDS011;1015;49.756;6.994;2022-10-26T02:08:57;2.47;;;1.17;;
2021;SDS011;1015;49.756;6.994;2022-10-26T02:11:35;1.20;;;1.10;;
2021;SDS011;1015;49.756;6.994;2022-10-26T02:14:07;1.57;;;1.13;;
2021;SDS011;1015;49.756;6.994;2022-10-26T02:16:42;1.20;;;1.07;;
2021;SDS011;1015;49.756;6.994;2022-10-26T02:19:21;1.83;;;1.30;;
2021;SDS011;1015;49.756;6.994;2022-10-26T02:21:56;1.20;;;1.10;;
2021;SDS011;1015;49.756;6.994;2022-10-26T02:24:28;1.40;;;1.30;;
2021;SDS011;1015;49.756;6.994;2022-10-26T02:26:57;1.43;;;1.10;;
2021;SDS011;1015;49.756;6.994;2022-10-26T02:29:26;1.40;;;1.10;;
2021;SDS011;1015;49.756;6.994;2022-10-26T02:31:56;2.50;;;1.23;;
2021;SDS011;1015;49.756;6.994;2022-10-26T02:34:25;2.83;;;1.17;;
2021;SDS011;1015;49.756;6.994;2022-10-26T02:36:54;1.97;;;1.00;;
2021;SDS011;1015;49.756;6.994;2022-10-26T02:39:26;1.70;;;1.00;;
2021;SDS011;1015;49.756;6.994;2022-10-26T02:41:56;1.80;;;1.10;;
2021;SDS011;1015;49.756;6.994;2022-10-26T02:44:26;1.20;;;0.90;;
2021;SDS011;1015;49.756;6.994;2022-10-26T02:46:58;2.20;;;1.27;;
2021;SDS011;1015;49.756;6.994;2022-10-26T02:49:26;3.47;;;1.17;;
2021;SDS011;1015;49.756;6.994;2022-10-26T02:51:55;1.47;;;1.07;;
2021;SDS011;1015;49.756;6.994;2022-10-26T02:54:29;2.80;;;1.10;;
2021;SDS011;1015;49.756;6.994;2022-10-26T02:57:02;1.93;;;1.17;;
2021;SDS011;1015;49.756;6.994;2022-10-26T02:59:35;4.40;;;1.67;;
2021;SDS011;1015;49.756;6.994;2022-10-26T03:02:07;2.20;;;1.10;;
2021;SDS011;1015;49.756;6.994;2022-10-26T03:04:36;1.87;;;1.13;;
2021;SDS011;1015;49.756;6.994;2022-10-26T03:07:03;2.03;;;1.50;;
2021;SDS011;1015;49.756;6.994;2022-10-26T03:09:30;3.57;;;1.20;;
2021;SDS011;1015;49.756;6.994;2022-10-26T03:11:57;1.63;;;1.53;;
2021;SDS011;1015;49.756;6.994;2022-10-26T03:14:24;2.80;;;1.50;;
2021;SDS011;1015;49.756;6.994;2022-10-26T03:16:52;1.20;;;1.10;;
2021;SDS011;1015;49.756;6.994;2022-10-26T03:19:20;2.33;;;1.43;;
2021;SDS011;1015;49.756;6.994;2022-10-26T03:21:48;4.73;;;1.43;;
2021;SDS011;1015;49.756;6.994;2022-10-26T03:24:15;2.90;;;1.47;;
2021;SDS011;1015;49.756;6.994;2022-10-26T03:26:42;2.73;;;1.50;;
2021;SDS011;1015;49.756;6.994;2022-10-26T03:29:09;2.87;;;1.40;;
2021;SDS011;1015;49.756;6.994;2022-10-26T03:31:36;2.87;;;1.50;;
2021;SDS011;1015;49.756;6.994;2022-10-26T03:34:04;2.77;;;1.40;;
2021;SDS011;1015;49.756;6.994;2022-10-26T03:36:32;1.90;;;1.67;;
2021;SDS011;1015;49.756;6.994;2022-10-26T03:38:59;3.30;;;1.57;;
2021;SDS011;1015;49.756;6.994;2022-10-26T03:41:27;2.97;;;1.70;;
2021;SDS011;1015;49.756;6.994;2022-10-26T03:43:54;2.80;;;1.60;;
2021;SDS011;1015;49.756;6.994;2022-10-26T03:46:21;4.37;;;1.57;;
2021;SDS011;1015;49.756;6.994;2022-10-26T03:48:48;3.70;;;1.67;;
2021;SDS011;1015;49.756;6.994;2022-10-26T03:51:16;2.40;;;1.80;;
2021;SDS011;1015;49.756;6.994;2022-10-26T03:53:44;2.70;;;1.70;;
2021;SDS011;1015;49.756;6.994;2022-10-26T03:56:11;1.90;;;1.70;;
2021;SDS011;1015;49.756;6.994;2022-10-26T03:58:39;3.37;;;1.80;;
2021;SDS011;1015;49.756;6.994;2022-10-26T04:01:06;1.93;;;1.70;;
2021;SDS011;1015;49.756;6.994;2022-10-26T04:03:33;3.40;;;1.70;;
2021;SDS011;1015;49.756;6.994;2022-10-26T04:06:00;3.37;;;1.80;;
2021;SDS011;1015;49.756;6.994;2022-10-26T04:08:28;2.77;;;1.60;;
2021;SDS011;1015;49.756;6.994;2022-10-26T04:10:56;4.17;;;2.20;;
2021;SDS011;1015;49.756;6.994;2022-10-26T04:13:24;3.83;;;1.50;;
2021;SDS011;1015;49.756;6.994;2022-10-26T04:15:51;2.97;;;1.97;;
2021;SDS011;1015;49.756;6.994;2022-10-26T04:18:18;2.97;;;2.03;;
2021;SDS011;1015;49.756;6.994;2022-10-26T04:20:45;1.97;;;1.83;;
2021;SDS011;1015;49.756;6.994;2022-10-26T04:23:13;2.90;;;1.90;;
2021;SDS011;1015;49.756;6.994;2022-10-26T04:25:42;3.03;;;2.17;;
2021;SDS011;1015;49.756;6.994;2022-10-26T04:28:11;2.30;;;2.10;;
2021;SDS011;1015;49.756;6.994;2022-10-26T04:30:39;2.50;;;2.03;;
2021;SDS011;1015;49.756;6.994;2022-10-26T04:33:07;4.53;;;2.37;;
2021;SDS011;1015;49.756;6.994;2022-10-26T04:35:34;3.30;;;2.40;;
2021;SDS011;1015;49.756;6.994;2022-10-26T04:38:02;3.40;;;2.07;;
2021;SDS011;1015;49.756;6.994;2022-10-26T04:40:31;6.10;;;2.27;;
2021;SDS011;1015;49.756;6.994;2022-10-26T04:42:59;6.00;;;2.37;;
2021;SDS011;1015;49.756;6.994;2022-10-26T04:45:27;3.73;;;2.30;;
2021;SDS011;1015;49.756;6.994;2022-10-26T04:47:59;3.93;;;2.57;;
2021;SDS011;1015;49.756;6.994;2022-10-26T04:50:26;4.30;;;2.20;;
2021;SDS011;1015;49.756;6.994;2022-10-26T04:52:54;2.90;;;2.40;;
2021;SDS011;1015;49.756;6.994;2022-10-26T04:55:21;10.30;;;2.40;;
2021;SDS011;1015;49.756;6.994;2022-10-26T04:57:48;3.83;;;2.57;;
2021;SDS011;1015;49.756;6.994;2022-10-26T05:00:16;5.13;;;2.67;;
2021;SDS011;1015;49.756;6.994;2022-10-26T05:02:45;3.40;;;2.50;;
2021;SDS011;1015;49.756;6.994;2022-10-26T05:05:12;5.83;;;2.63;;
2021;SDS011;1015;49.756;6.994;2022-10-26T05:07:39;4.87;;;2.73;;
2021;SDS011;1015;49.756;6.994;2022-10-26T05:10:07;3.40;;;2.13;;
2021;SDS011;1015;49.756;6.994;2022-10-26T05:12:34;4.87;;;2.60;;
2021;SDS011;1015;49.756;6.994;2022-10-26T05:15:02;5.57;;;2.80;;
2021;SDS011;1015;49.756;6.994;2022-10-26T05:17:30;4.03;;;2.80;;
2021;SDS011;1015;49.756;6.994;2022-10-26T05:19:58;5.60;;;3.10;;
2021;SDS011;1015;49.756;6.994;2022-10-26T05:22:30;4.80;;;2.90;;
2021;SDS011;1015;49.756;6.994;2022-10-26T05:24:57;3.83;;;3.00;;
2021;SDS011;1015;49.756;6.994;2022-10-26T05:27:24;3.40;;;2.90;;
2021;SDS011;1015;49.756;6.994;2022-10-26T05:29:51;5.57;;;2.70;;
2021;SDS011;1015;49.756;6.994;2022-10-26T05:32:18;7.83;;;3.80;;
2021;SDS011;1015;49.756;6.994;2022-10-26T05:34:46;4.87;;;3.70;;
2021;SDS011;1015;49.756;6.994;2022-10-26T05:37:15;4.83;;;3.53;;
2021;SDS011;1015;49.756;6.994;2022-10-26T05:39:42;4.20;;;3.10;;
2021;SDS011;1015;49.756;6.994;2022-10-26T05:42:09;5.40;;;2.80;;
2021;SDS011;1015;49.756;6.994;2022-10-26T05:44:36;4.73;;;3.10;;
2021;SDS011;1015;49.756;6.994;2022-10-26T05:47:03;4.67;;;3.40;;
2021;SDS011;1015;49.756;6.994;2022-10-26T05:49:32;3.70;;;2.70;;
2021;SDS011;1015;49.756;6.994;2022-10-26T05:51:59;7.37;;;3.20;;
2021;SDS011;1015;49.756;6.994;2022-10-26T05:54:27;6.43;;;3.70;;
2021;SDS011;1015;49.756;6.994;2022-10-26T05:56:55;6.83;;;3.77;;
2021;SDS011;1015;49.756;6.994;2022-10-26T05:59:22;6.60;;;3.90;;
2021;SDS011;1015;49.756;6.994;2022-10-26T06:01:56;7.03;;;3.70;;
2021;SDS011;1015;49.756;6.994;2022-10-26T06:04:35;5.67;;;4.07;;
2021;SDS011;1015;49.756;6.994;2022-10-26T06:07:07;9.37;;;6.33;;
2021;SDS011;1015;49.756;6.994;2022-10-26T06:09:39;7.47;;;4.87;;
2021;SDS011;1015;49.756;6.994;2022-10-26T06:12:07;8.70;;;4.47;;
2021;SDS011;1015;49.756;6.994;2022-10-26T06:14:36;6.43;;;3.80;;
2021;SDS011;1015;49.756;6.994;2022-10-26T06:17:08;7.87;;;3.33;;
2021;SDS011;1015;49.756;6.994;2022-10-26T06:19:50;4.17;;;3.17;;
2021;SDS011;1015;49.756;6.994;2022-10-26T06:22:30;5.67;;;4.20;;
2021;SDS011;1015;49.756;6.994;2022-10-26T06:25:08;5.80;;;3.53;;
2021;SDS011;1015;49.756;6.994;2022-10-26T06:27:42;8.20;;;3.87;;
2021;SDS011;1015;49.756;6.994;2022-10-26T06:30:17;5.63;;;3.60;;
2021;SDS011;1015;49.756;6.994;2022-10-26T06:32:47;6.70;;;3.47;;
2021;SDS011;1015;49.756;6.994;2022-10-26T06:35:23;7.10;;;4.27;;
2021;SDS011;1015;49.756;6.994;2022-10-26T06:37:54;4.07;;;3.63;;
2021;SDS011;1015;49.756;6.994;2022-10-26T06:40:27;8.23;;;3.80;;
2021;SDS011;1015;49.756;6.994;2022-10-26T06:42:58;5.10;;;3.40;;
2021;SDS011;1015;49.756;6.994;2022-10-26T06:45:26;5.70;;;3.63;;
2021;SDS011;1015;49.756;6.994;2022-10-26T06:47:55;7.10;;;4.23;;
2021;SDS011;1015;49.756;6.994;2022-10-26T06:50:27;6.67;;;3.80;;
2021;SDS011;1015;49.756;6.994;2022-10-26T06:53:07;5.73;;;3.67;;
2021;SDS011;1015;49.756;6.994;2022-10-26T06:55:43;5.07;;;4.03;;
2021;SDS011;1015;49.756;6.994;2022-10-26T06:58:14;6.20;;;3.77;;
2021;SDS011;1015;49.756;6.994;2022-10-26T07:00:44;5.37;;;3.73;;
2021;SDS011;1015;49.756;6.994;2022-10-26T07:03:13;5.23;;;3.70;;
2021;SDS011;1015;49.756;6.994;2022-10-26T07:05:40;6.50;;;4.00;;
2021;SDS011;1015;49.756;6.994;2022-10-26T07:08:09;4.60;;;3.70;;
2021;SDS011;1015;49.756;6.994;2022-10-26T07:10:36;7.20;;;3.73;;
2021;SDS011;1015;49.756;6.994;2022-10-26T07:13:05;9.10;;;4.07;;
2021;SDS011;1015;49.756;6.994;2022-10-26T07:15:33;7.33;;;4.13;;
2021;SDS011;1015;49.756;6.994;2022-10-26T07:18:01;5.67;;;4.00;;
2021;SDS011;1015;49.756;6.994;2022-10-26T07:20:31;5.03;;;3.40;;
2021;SDS011;1015;49.756;6.994;2022-10-26T07:23:01;5.63;;;4.10;;
2021;SDS011;1015;49.756;6.994;2022-10-26T07:25:31;4.80;;;3.70;;
2021;SDS011;1015;49.756;6.994;2022-10-26T07:27:59;5.57;;;3.60;;
2021;SDS011;1015;49.756;6.994;2022-10-26T07:30:28;4.73;;;3.40;;
2021;SDS011;1015;49.756;6.994;2022-10-26T07:32:59;7.70;;;3.60;;
2021;SDS011;1015;49.756;6.994;2022-10-26T07:35:26;7.50;;;3.70;;
2021;SDS011;1015;49.756;6.994;2022-10-26T07:37:56;5.50;;;3.50;;
2021;SDS011;1015;49.756;6.994;2022-10-26T07:40:24;11.67;;;3.93;;
2021;SDS011;1015;49.756;6.994;2022-10-26T07:42:51;5.97;;;3.67;;
2021;SDS011;1015;49.756;6.994;2022-10-26T07:45:21;4.10;;;3.50;;
2021;SDS011;1015;49.756;6.994;2022-10-26T07:47:49;3.97;;;3.57;;
2021;SDS011;1015;49.756;6.994;2022-10-26T07:50:17;5.53;;;3.70;;
2021;SDS011;1015;49.756;6.994;2022-10-26T07:52:44;6.00;;;3.33;;
2021;SDS011;1015;49.756;6.994;2022-10-26T07:55:11;6.80;;;3.37;;
2021;SDS011;1015;49.756;6.994;2022-10-26T07:57:39;5.60;;;3.13;;
2021;SDS011;1015;49.756;6.994;2022-10-26T08:00:07;6.80;;;3.50;;
2021;SDS011;1015;49.756;6.994;2022-10-26T08:02:35;6.17;;;3.27;;
2021;SDS011;1015;49.756;6.994;2022-10-26T08:05:04;5.00;;;3.67;;
2021;SDS011;1015;49.756;6.994;2022-10-26T08:07:32;6.40;;;3.50;;
2021;SDS011;1015;49.756;6.994;2022-10-26T08:09:59;6.57;;;4.03;;
2021;SDS011;1015;49.756;6.994;2022-10-26T08:12:26;5.70;;;3.90;;
2021;SDS011;1015;49.756;6.994;2022-10-26T08:14:53;4.80;;;3.87;;
2021;SDS011;1015;49.756;6.994;2022-10-26T08:17:20;10.67;;;4.07;;
2021;SDS011;1015;49.756;6.994;2022-10-26T08:19:47;7.43;;;3.67;;
2021;SDS011;1015;49.756;6.994;2022-10-26T08:22:16;8.60;;;4.50;;
2021;SDS011;1015;49.756;6.994;2022-10-26T08:24:43;5.53;;;3.90;;
2021;SDS011;1015;49.756;6.994;2022-10-26T08:27:11;7.93;;;4.00;;
2021;SDS011;1015;49.756;6.994;2022-10-26T08:29:39;4.90;;;3.53;;
2021;SDS011;1015;49.756;6.994;2022-10-26T08:32:06;3.73;;;3.30;;
2021;SDS011;1015;49.756;6.994;2022-10-26T08:34:34;7.20;;;4.00;;
2021;SDS011;1015;49.756;6.994;2022-10-26T08:37:01;5.50;;;3.73;;
2021;SDS011;1015;49.756;6.994;2022-10-26T08:39:30;8.57;;;4.70;;
2021;SDS011;1015;49.756;6.994;2022-10-26T08:42:00;8.87;;;3.73;;
2021;SDS011;1015;49.756;6.994;2022-10-26T08:44:34;6.40;;;4.10;;
2021;SDS011;1015;49.756;6.994;2022-10-26T08:47:09;9.97;;;3.80;;
2021;SDS011;1015;49.756;6.994;2022-10-26T08:49:40;5.47;;;4.03;;
2021;SDS011;1015;49.756;6.994;2022-10-26T08:52:14;4.13;;;3.47;;
2021;SDS011;1015;49.756;6.994;2022-10-26T08:54:47;6.07;;;3.57;;
2021;SDS011;1015;49.756;6.994;2022-10-26T08:57:18;4.57;;;3.70;;
2021;SDS011;1015;49.756;6.994;2022-10-26T08:59:51;6.63;;;3.87;;
2021;SDS011;1015;49.756;6.994;2022-10-26T09:02:23;5.23;;;3.10;;
2021;SDS011;1015;49.756;6.994;2022-10-26T09:04:51;5.50;;;3.80;;
2021;SDS011;1015;49.756;6.994;2022-10-26T09:07:24;3.87;;;3.53;;
2021;SDS011;1015;49.756;6.994;2022-10-26T09:10:06;5.20;;;2.97;;
2021;SDS011;1015;49.756;6.994;2022-10-26T09:12:43;4.80;;;3.80;;
2021;SDS011;1015;49.756;6.994;2022-10-26T09:15:19;4.50;;;3.90;;
2021;SDS011;1015;49.756;6.994;2022-10-26T09:17:56;5.33;;;3.30;;
2021;SDS011;1015;49.756;6.994;2022-10-26T09:20:36;6.07;;;3.80;;
2021;SDS011;1015;49.756;6.994;2022-10-26T09:23:13;5.97;;;3.40;;
2021;SDS011;1015;49.756;6.994;2022-10-26T09:25:59;5.50;;;3.07;;
2021;SDS011;1015;49.756;6.994;2022-10-26T09:28:29;4.77;;;2.93;;
2021;SDS011;1015;49.756;6.994;2022-10-26T09:31:00;3.37;;;2.80;;
2021;SDS011;1015;49.756;6.994;2022-10-26T09:33:30;4.37;;;2.60;;
2021;SDS011;1015;49.756;6.994;2022-10-26T09:36:02;3.57;;;2.80;;
2021;SDS011;1015;49.756;6.994;2022-10-26T09:38:33;5.43;;;2.73;;
2021;SDS011;1015;49.756;6.994;2022-10-26T09:41:12;2.87;;;2.50;;
2021;SDS011;1015;49.756;6.994;2022-10-26T09:43:47;5.67;;;2.80;;
2021;SDS011;1015;49.756;6.994;2022-10-26T09:46:23;6.40;;;2.60;;
2021;SDS011;1015;49.756;6.994;2022-10-26T09:48:54;4.90;;;3.10;;
2021;SDS011;1015;49.756;6.994;2022-10-26T09:51:24;5.70;;;2.70;;
2021;SDS011;1015;49.756;6.994;2022-10-26T09:53:52;5.70;;;2.60;;
2021;SDS011;1015;49.756;6.994;2022-10-26T09:56:22;3.03;;;2.40;;
2021;SDS011;1015;49.756;6.994;2022-10-26T09:58:51;5.23;;;2.43;;
2021;SDS011;1015;49.756;6.994;2022-10-26T10:01:28;4.40;;;2.30;;
2021;SDS011;1015;49.756;6.994;2022-10-26T10:06:47;5.30;;;2.30;;
2021;SDS011;1015;49.756;6.994;2022-10-26T10:09:16;4.40;;;2.43;;
2021;SDS011;1015;49.756;6.994;2022-10-26T10:11:48;3.63;;;2.40;;
2021;SDS011;1015;49.756;6.994;2022-10-26T10:14:21;5.00;;;2.43;;
2021;SDS011;1015;49.756;6.994;2022-10-26T10:16:50;3.80;;;2.20;;
2021;SDS011;1015;49.756;6.994;2022-10-26T10:19:21;4.80;;;2.20;;
2021;SDS011;1015;49.756;6.994;2022-10-26T10:21:50;5.13;;;2.07;;
2021;SDS011;1015;49.756;6.994;2022-10-26T10:24:21;3.83;;;2.07;;
2021;SDS011;1015;49.756;6.994;2022-10-26T10:27:01;2.50;;;1.80;;
2021;SDS011;1015;49.756;6.994;2022-10-26T10:29:32;4.90;;;2.27;;
2021;SDS011;1015;49.756;6.994;2022-10-26T10:32:05;2.80;;;2.00;;
2021;SDS011;1015;49.756;6.994;2022-10-26T10:34:40;5.77;;;1.90;;
2021;SDS011;1015;49.756;6.994;2022-10-26T10:37:12;6.60;;;1.77;;
2021;SDS011;1015;49.756;6.994;2022-10-26T10:39:54;1.80;;;1.50;;
2021;SDS011;1015;49.756;6.994;2022-10-26T10:42:26;2.70;;;1.50;;
2021;SDS011;1015;49.756;6.994;2022-10-26T10:44:56;1.50;;;1.40;;
2021;SDS011;1015;49.756;6.994;2022-10-26T10:47:24;1.97;;;1.50;;
2021;SDS011;1015;49.756;6.994;2022-10-26T10:49:55;5.30;;;1.70;;
2021;SDS011;1015;49.756;6.994;2022-10-26T10:52:25;2.27;;;1.57;;
2021;SDS011;1015;49.756;6.994;2022-10-26T10:54:57;5.50;;;1.70;;
2021;SDS011;1015;49.756;6.994;2022-10-26T10:57:39;2.53;;;1.50;;
2021;SDS011;1015;49.756;6.994;2022-10-26T11:00:29;2.17;;;1.30;;
2021;SDS011;1015;49.756;6.994;2022-10-26T11:06:06;2.90;;;1.70;;
2021;SDS011;1015;49.756;6.994;2022-10-26T11:08:40;3.73;;;1.90;;
2021;SDS011;1015;49.756;6.994;2022-10-26T11:11:12;2.50;;;1.60;;
2021;SDS011;1015;49.756;6.994;2022-10-26T11:13:45;2.57;;;2.10;;
2021;SDS011;1015;49.756;6.994;2022-10-26T11:16:19;4.00;;;1.87;;
2021;SDS011;1015;49.756;6.994;2022-10-26T11:18:50;4.03;;;2.20;;
2021;SDS011;1015;49.756;6.994;2022-10-26T11:21:23;4.47;;;3.53;;
2021;SDS011;1015;49.756;6.994;2022-10-26T11:23:56;4.30;;;1.57;;
2021;SDS011;1015;49.756;6.994;2022-10-26T11:26:35;3.57;;;2.00;;
2021;SDS011;1015;49.756;6.994;2022-10-26T11:29:10;1.70;;;1.50;;
2021;SDS011;1015;49.756;6.994;2022-10-26T11:31:46;2.20;;;1.40;;
2021;SDS011;1015;49.756;6.994;2022-10-26T11:34:20;2.90;;;1.70;;
2021;SDS011;1015;49.756;6.994;2022-10-26T11:36:54;2.23;;;1.30;;
2021;SDS011;1015;49.756;6.994;2022-10-26T11:39:29;1.83;;;1.23;;
2021;SDS011;1015;49.756;6.994;2022-10-26T11:42:03;1.90;;;1.40;;
2021;SDS011;1015;49.756;6.994;2022-10-26T11:44:38;1.53;;;1.07;;
2021;SDS011;1015;49.756;6.994;2022-10-26T11:47:11;3.87;;;1.70;;
2021;SDS011;1015;49.756;6.994;2022-10-26T11:49:42;3.10;;;1.23;;
2021;SDS011;1015;49.756;6.994;2022-10-26T11:52:14;2.80;;;1.73;;
2021;SDS011;1015;49.756;6.994;2022-10-26T11:54:47;2.33;;;1.00;;
2021;SDS011;1015;49.756;6.994;2022-10-26T11:57:18;1.27;;;0.90;;
2021;SDS011;1015;49.756;6.994;2022-10-26T11:59:51;1.20;;;1.10;;
2021;SDS011;1015;49.756;6.994;2022-10-26T12:02:20;2.13;;;1.23;;
2021;SDS011;1015;49.756;6.994;2022-10-26T12:04:49;4.17;;;1.23;;
2021;SDS011;1015;49.756;6.994;2022-10-26T12:07:21;1.00;;;0.90;;
2021;SDS011;1015;49.756;6.994;2022-10-26T12:09:51;4.87;;;1.37;;
2021;SDS011;1015;49.756;6.994;2022-10-26T12:12:23;3.00;;;1.20;;
2021;SDS011;1015;49.756;6.994;2022-10-26T12:15:01;2.20;;;1.10;;
2021;SDS011;1015;49.756;6.994;2022-10-26T12:17:40;3.70;;;1.37;;
2021;SDS011;1015;49.756;6.994;2022-10-26T12:20:17;4.83;;;1.53;;
2021;SDS011;1015;49.756;6.994;2022-10-26T12:23:12;2.13;;;1.43;;
2021;SDS011;1015;49.756;6.994;2022-10-26T12:25:39;2.10;;;1.00;;
2021;SDS011;1015;49.756;6.994;2022-10-26T12:28:14;4.20;;;1.20;;
2021;SDS011;1015;49.756;6.994;2022-10-26T12:34:21;1.67;;;1.57;;
2021;SDS011;1015;49.756;6.994;2022-10-26T12:36:49;2.70;;;1.17;;
2021;SDS011;1015;49.756;6.994;2022-10-26T12:39:37;2.43;;;1.20;;
2021;SDS011;1015;49.756;6.994;2022-10-26T12:42:09;3.90;;;1.30;;
2021;SDS011;1015;49.756;6.994;2022-10-26T12:45:05;3.83;;;1.47;;
2021;SDS011;1015;49.756;6.994;2022-10-26T12:48:00;2.17;;;1.13;;
2021;SDS011;1015;49.756;6.994;2022-10-26T12:50:30;4.53;;;1.50;;
2021;SDS011;1015;49.756;6.994;2022-10-26T12:52:58;3.77;;;1.43;;
2021;SDS011;1015;49.756;6.994;2022-10-26T13:01:42;1.73;;;1.23;;
2021;SDS011;1015;49.756;6.994;2022-10-26T13:07:43;2.90;;;1.40;;
2021;SDS011;1015;49.756;6.994;2022-10-26T13:10:18;5.63;;;1.50;;
2021;SDS011;1015;49.756;6.994;2022-10-26T13:12:48;2.10;;;1.30;;
2021;SDS011;1015;49.756;6.994;2022-10-26T13:15:21;1.50;;;1.30;;
2021;SDS011;1015;49.756;6.994;2022-10-26T13:17:55;3.20;;;1.23;;
2021;SDS011;1015;49.756;6.994;2022-10-26T13:20:26;2.57;;;1.30;;
2021;SDS011;1015;49.756;6.994;2022-10-26T13:22:57;3.33;;;1.10;;
2021;SDS011;1015;49.756;6.994;2022-10-26T13:25:25;1.67;;;1.07;;
2021;SDS011;1015;49.756;6.994;2022-10-26T13:27:58;1.60;;;1.10;;
2021;SDS011;1015;49.756;6.994;2022-10-26T13:33:10;3.03;;;1.13;;
2021;SDS011;1015;49.756;6.994;2022-10-26T13:35:50;1.37;;;0.97;;
2021;SDS011;1015;49.756;6.994;2022-10-26T13:38:23;1.80;;;1.00;;
2021;SDS011;1015;49.756;6.994;2022-10-26T13:40:59;1.57;;;1.10;;
2021;SDS011;1015;49.756;6.994;2022-10-26T13:43:33;1.90;;;1.30;;
2021;SDS011;1015;49.756;6.994;2022-10-26T13:46:03;2.30;;;1.03;;
2021;SDS011;1015;49.756;6.994;2022-10-26T13:48:34;2.00;;;1.20;;
2021;SDS011;1015;49.756;6.994;2022-10-26T13:51:06;2.50;;;1.10;;
2021;SDS011;1015;49.756;6.994;2022-10-26T13:53:42;3.70;;;1.40;;
2021;SDS011;1015;49.756;6.994;2022-10-26T13:56:21;1.30;;;0.97;;
2021;SDS011;1015;49.756;6.994;2022-10-26T13:58:54;2.57;;;1.40;;
2021;SDS011;1015;49.756;6.994;2022-10-26T14:01:25;2.37;;;1.07;;
2021;SDS011;1015;49.756;6.994;2022-10-26T14:03:53;1.80;;;1.17;;
2021;SDS011;1015;49.756;6.994;2022-10-26T14:06:23;1.97;;;1.20;;
2021;SDS011;1015;49.756;6.994;2022-10-26T14:08:56;2.60;;;1.20;;
2021;SDS011;1015;49.756;6.994;2022-10-26T14:11:29;2.80;;;1.00;;
2021;SDS011;1015;49.756;6.994;2022-10-26T14:13:59;2.13;;;1.07;;
2021;SDS011;1015;49.756;6.994;2022-10-26T14:16:29;1.33;;;1.13;;
2021;SDS011;1015;49.756;6.994;2022-10-26T14:18:57;2.07;;;1.10;;
2021;SDS011;1015;49.756;6.994;2022-10-26T14:21:25;2.53;;;1.23;;
2021;SDS011;1015;49.756;6.994;2022-10-26T14:23:53;1.90;;;1.20;;
2021;SDS011;1015;49.756;6.994;2022-10-26T14:26:25;1.53;;;1.20;;
2021;SDS011;1015;49.756;6.994;2022-10-26T14:28:53;4.70;;;1.37;;
2021;SDS011;1015;49.756;6.994;2022-10-26T14:31:23;5.20;;;1.37;;
2021;SDS011;1015;49.756;6.994;2022-10-26T14:33:53;1.57;;;1.13;;
2021;SDS011;1015;49.756;6.994;2022-10-26T14:36:24;1.50;;;1.20;;
2021;SDS011;1015;49.756;6.994;2022-10-26T14:38:56;1.50;;;1.10;;
2021;SDS011;1015;49.756;6.994;2022-10-26T14:41:28;4.30;;;1.27;;
2021;SDS011;1015;49.756;6.994;2022-10-26T14:43:56;2.73;;;1.10;;
2021;SDS011;1015;49.756;6.994;2022-10-26T14:46:25;1.90;;;0.97;;
2021;SDS011;1015;49.756;6.994;2022-10-26T14:48:58;2.20;;;0.93;;
2021;SDS011;1015;49.756;6.994;2022-10-26T14:51:27;3.53;;;1.10;;
2021;SDS011;1015;49.756;6.994;2022-10-26T14:53:56;1.10;;;1.00;;
2021;SDS011;1015;49.756;6.994;2022-10-26T14:56:28;1.90;;;0.90;;
2021;SDS011;1015;49.756;6.994;2022-10-26T14:58:57;2.53;;;1.03;;
2021;SDS011;1015;49.756;6.994;2022-10-26T15:01:31;3.17;;;1.10;;
2021;SDS011;1015;49.756;6.994;2022-10-26T15:04:00;1.53;;;0.83;;
2021;SDS011;1015;49.756;6.994;2022-10-26T15:06:31;1.43;;;1.03;;
2021;SDS011;1015;49.756;6.994;2022-10-26T15:09:27;4.30;;;1.07;;
2021;SDS011;1015;49.756;6.994;2022-10-26T15:12:04;1.13;;;1.00;;
2021;SDS011;1015;49.756;6.994;2022-10-26T15:14:33;1.33;;;1.03;;
2021;SDS011;1015;49.756;6.994;2022-10-26T15:17:01;1.90;;;1.13;;
2021;SDS011;1015;49.756;6.994;2022-10-26T15:19:28;1.50;;;0.83;;
2021;SDS011;1015;49.756;6.994;2022-10-26T15:21:56;2.20;;;0.97;;
2021;SDS011;1015;49.756;6.994;2022-10-26T15:24:27;1.40;;;1.30;;
2021;SDS011;1015;49.756;6.994;2022-10-26T15:26:57;4.57;;;1.33;;
2021;SDS011;1015;49.756;6.994;2022-10-26T15:29:40;1.63;;;1.20;;
2021;SDS011;1015;49.756;6.994;2022-10-26T15:35:21;3.03;;;1.53;;
2021;SDS011;1015;49.756;6.994;2022-10-26T15:37:56;2.90;;;1.10;;
2021;SDS011;1015;49.756;6.994;2022-10-26T15:40:25;2.93;;;0.97;;
2021;SDS011;1015;49.756;6.994;2022-10-26T15:42:54;1.80;;;1.07;;
2021;SDS011;1015;49.756;6.994;2022-10-26T15:45:26;2.90;;;1.00;;
2021;SDS011;1015;49.756;6.994;2022-10-26T15:47:57;2.00;;;1.30;;
2021;SDS011;1015;49.756;6.994;2022-10-26T15:50:26;2.97;;;1.90;;
2021;SDS011;1015;49.756;6.994;2022-10-26T15:52:55;2.40;;;1.73;;
2021;SDS011;1015;49.756;6.994;2022-10-26T15:55:25;3.80;;;2.20;;
2021;SDS011;1015;49.756;6.994;2022-10-26T15:57:53;2.40;;;1.47;;
2021;SDS011;1015;49.756;6.994;2022-10-26T16:00:21;1.87;;;1.23;;
2021;SDS011;1015;49.756;6.994;2022-10-26T16:02:50;2.77;;;1.47;;
2021;SDS011;1015;49.756;6.994;2022-10-26T16:05:17;2.33;;;1.63;;